Time;durP1;ratioP1;P1;durP2;ratioP2;P2;SDS_P1;SDS_P2;PMS_P1;PMS_P2;Temp;Humidity;BMP_temperature;BMP_pressure;BME280_temperature;BME280_humidity;BME280_pressure;Samples;Min_cycle;Max_cycle;Signal;HPM_P1;HPM_P2
2021/07/11 00:00:31;;;;;;;6.55;2.60;;;;;;;16.02;79.78;100424.28;5083715;28;20089;-73
2021/07/11 00:02:57;;;;;;;5.50;2.33;;;;;;;16.01;79.80;100426.03;5083398;28;20055;-73
2021/07/11 00:05:24;;;;;;;6.72;2.10;;;;;;;16.01;79.07;100428.66;5083652;28;20017;-73
2021/07/11 00:07:49;;;;;;;5.60;2.50;;;;;;;16.00;79.30;100429.56;5083554;28;20021;-74
2021/07/11 00:10:16;;;;;;;7.05;2.67;;;;;;;16.00;79.58;100420.84;5082296;28;20020;-73
2021/07/11 00:12:42;;;;;;;7.32;2.50;;;;;;;15.96;78.39;100420.03;5083278;28;20028;-74
2021/07/11 00:15:11;;;;;;;6.70;2.50;;;;;;;15.98;79.55;100431.38;5083325;28;20039;-71
2021/07/11 00:17:37;;;;;;;9.82;3.38;;;;;;;15.98;78.97;100424.38;5083472;28;20227;-73
2021/07/11 00:20:05;;;;;;;5.70;2.70;;;;;;;15.96;79.07;100430.50;5083231;28;20028;-74
2021/07/11 00:22:30;;;;;;;6.80;2.63;;;;;;;15.97;78.69;100430.50;5083124;28;20059;-74
2021/07/11 00:24:56;;;;;;;10.13;2.92;;;;;;;15.95;78.31;100429.69;5083194;28;20063;-74
2021/07/11 00:27:21;;;;;;;8.75;3.13;;;;;;;15.97;79.23;100434.88;5083053;28;20035;-72
2021/07/11 00:29:47;;;;;;;8.95;3.00;;;;;;;15.98;78.98;100434.84;5083162;28;20031;-73
2021/07/11 00:32:12;;;;;;;6.90;2.67;;;;;;;16.02;79.27;100437.38;5083028;28;20016;-74
2021/07/11 00:34:37;;;;;;;10.57;2.83;;;;;;;16.01;78.78;100439.13;5083218;28;20108;-73
2021/07/11 00:37:03;;;;;;;6.35;2.72;;;;;;;16.03;78.60;100429.47;5083130;28;20362;-73
2021/07/11 00:39:28;;;;;;;9.02;2.72;;;;;;;16.03;78.78;100434.72;5082952;28;20024;-74
2021/07/11 00:41:54;;;;;;;8.48;2.92;;;;;;;15.98;78.52;100427.00;5083186;28;20028;-73
2021/07/11 00:44:19;;;;;;;6.03;2.75;;;;;;;16.03;78.65;100434.72;5082858;28;20036;-73
2021/07/11 00:46:45;;;;;;;7.70;2.40;;;;;;;16.06;78.96;100429.38;5082991;28;20021;-73
2021/07/11 00:49:11;;;;;;;12.77;3.88;;;;;;;16.04;78.46;100439.03;5083077;28;20056;-74
2021/07/11 00:51:36;;;;;;;11.48;2.88;;;;;;;16.08;78.52;100435.44;5084625;28;20356;-73
2021/07/11 00:54:04;;;;;;;7.18;3.10;;;;;;;16.05;78.09;100442.53;5086612;28;20012;-74
2021/07/11 00:56:29;;;;;;;8.88;3.35;;;;;;;16.05;78.08;100440.75;5086600;28;20025;-74
2021/07/11 00:58:56;;;;;;;7.70;2.92;;;;;;;16.07;78.16;100441.56;5086339;28;20024;-74
2021/07/11 01:01:50;;;;;;;7.60;2.97;;;;;;;16.07;78.27;100440.72;5086581;28;20035;-74
2021/07/11 01:04:25;;;;;;;7.82;2.80;;;;;;;16.08;78.70;100440.66;5067884;28;20033;-74
2021/07/11 01:06:54;;;;;;;9.43;2.90;;;;;;;16.08;78.41;100439.81;5086419;28;20100;-74
2021/07/11 01:09:28;;;;;;;9.32;3.55;;;;;;;16.07;78.35;100444.16;5086338;28;20544;-73
2021/07/11 01:12:03;;;;;;;8.88;3.08;;;;;;;16.06;77.82;100438.97;5086472;28;20024;-73
2021/07/11 01:14:33;;;;;;;9.77;3.78;;;;;;;16.05;78.25;100447.75;5086398;28;20047;-70
2021/07/11 01:17:02;;;;;;;9.13;3.03;;;;;;;16.04;77.91;100440.81;5086356;28;20058;-69
2021/07/11 01:19:55;;;;;;;9.02;3.55;;;;;;;16.06;77.83;100455.56;5085949;28;20040;-70
2021/07/11 01:22:25;;;;;;;8.35;3.28;;;;;;;16.08;78.61;100445.91;5086073;28;20021;-70
2021/07/11 01:25:00;;;;;;;6.72;3.25;;;;;;;16.12;78.00;100454.50;5086092;28;20074;-71
2021/07/11 01:27:29;;;;;;;7.82;2.85;;;;;;;16.10;77.49;100446.69;5086074;28;20016;-69
2021/07/11 01:29:56;;;;;;;10.68;2.80;;;;;;;16.11;77.17;100455.41;5085894;28;20527;-71
2021/07/11 01:32:22;;;;;;;12.05;3.60;;;;;;;16.08;77.28;100459.00;5085855;28;20020;-69
2021/07/11 01:34:49;;;;;;;6.85;2.63;;;;;;;16.06;76.69;100454.69;5085806;28;20025;-70
2021/07/11 01:37:16;;;;;;;6.95;2.67;;;;;;;16.03;76.33;100455.66;5085919;28;20050;-69
2021/07/11 01:39:43;;;;;;;11.52;3.67;;;;;;;16.03;76.47;100457.41;5084171;28;20044;-70
2021/07/11 01:42:09;;;;;;;9.10;3.00;;;;;;;16.04;77.39;100457.34;5085594;28;20024;-69
2021/07/11 01:44:36;;;;;;;9.70;3.40;;;;;;;16.05;77.13;100458.22;5085907;28;20020;-71
2021/07/11 01:47:04;;;;;;;10.10;3.53;;;;;;;16.03;76.20;100463.50;5085582;28;20103;-70
2021/07/11 01:49:31;;;;;;;13.55;3.70;;;;;;;16.00;75.96;100462.75;5084306;28;20020;-71
2021/07/11 01:51:57;;;;;;;11.00;2.88;;;;;;;15.98;76.87;100460.16;5085584;28;20051;-71
2021/07/11 01:54:23;;;;;;;8.90;3.58;;;;;;;16.01;76.50;100465.31;5085409;28;20020;-71
2021/07/11 01:56:49;;;;;;;8.82;2.90;;;;;;;15.98;75.72;100473.25;5085533;28;20031;-71
2021/07/11 01:59:14;;;;;;;4.07;2.55;;;;;;;15.93;75.75;100475.13;5083723;28;20027;-70
2021/07/11 02:01:39;;;;;;;7.32;3.30;;;;;;;15.93;76.21;100478.59;5085408;28;20114;-70
2021/07/11 02:04:05;;;;;;;9.70;2.88;;;;;;;15.92;75.02;100473.41;5084414;28;20032;-70
2021/07/11 02:06:33;;;;;;;14.30;3.58;;;;;;;15.90;75.86;100468.22;5085338;28;20025;-70
2021/07/11 02:08:58;;;;;;;8.50;2.70;;;;;;;15.92;75.94;100470.78;5085037;28;20021;-70
2021/07/11 02:11:25;;;;;;;9.05;3.47;;;;;;;15.91;76.63;100469.94;5085305;28;20233;-70
2021/07/11 02:14:00;;;;;;;9.82;3.20;;;;;;;15.96;76.54;100477.63;5085145;28;20017;-70
2021/07/11 02:16:33;;;;;;;7.97;3.35;;;;;;;15.96;76.01;100488.13;5085016;28;20393;-71
2021/07/11 02:19:00;;;;;;;8.90;2.95;;;;;;;15.93;76.42;100480.34;5085028;28;20032;-70
2021/07/11 02:21:26;;;;;;;7.97;3.35;;;;;;;15.93;76.80;100478.59;5084954;28;20024;-70
2021/07/11 02:23:53;;;;;;;9.40;3.42;;;;;;;16.03;77.15;100492.31;5084979;28;20017;-71
2021/07/11 02:26:18;;;;;;;5.57;3.30;;;;;;;16.02;75.74;100501.09;5085146;28;20021;-70
2021/07/11 02:28:45;;;;;;;5.10;2.80;;;;;;;15.98;75.38;100494.22;5084664;28;20058;-70
2021/07/11 02:31:12;;;;;;;7.75;2.92;;;;;;;15.96;75.65;100503.81;5084872;28;20295;-70
2021/07/11 02:33:38;;;;;;;5.57;2.67;;;;;;;15.94;75.58;100505.66;5084524;28;20016;-71
2021/07/11 02:36:10;;;;;;;7.57;3.00;;;;;;;15.98;75.92;100508.16;5084831;28;20465;-71
2021/07/11 02:38:41;;;;;;;7.50;3.15;;;;;;;16.00;76.14;100507.25;5084674;28;20028;-70
2021/07/11 02:41:07;;;;;;;7.15;2.75;;;;;;;15.99;74.88;100509.00;5084487;28;20028;-70
2021/07/11 02:43:33;;;;;;;10.27;2.80;;;;;;;15.97;75.36;100511.66;5084405;28;20029;-71
2021/07/11 02:46:00;;;;;;;7.32;3.22;;;;;;;15.96;74.63;100507.31;5084595;28;20048;-70
2021/07/11 02:48:27;;;;;;;8.27;2.75;;;;;;;15.95;75.03;100507.34;5084121;28;20055;-70
2021/07/11 02:50:53;;;;;;;6.30;2.42;;;;;;;15.96;75.74;100509.06;5084223;28;20020;-70
2021/07/11 02:53:21;;;;;;;11.23;3.10;;;;;;;15.95;75.28;100510.84;5084247;28;20113;-70
2021/07/11 02:55:51;;;;;;;7.20;2.78;;;;;;;15.98;75.88;100512.53;5084353;28;20036;-70
2021/07/11 02:58:18;;;;;;;6.72;3.13;;;;;;;15.95;75.29;100507.34;5084245;28;20028;-69
2021/07/11 03:00:45;;;;;;;5.82;2.90;;;;;;;15.98;75.72;100509.91;5084306;28;20024;-68
2021/07/11 03:03:14;;;;;;;8.63;3.10;;;;;;;15.95;76.13;100505.59;5084130;28;20050;-69
2021/07/11 03:05:40;;;;;;;8.27;2.63;;;;;;;15.96;75.21;100514.28;5084123;28;20012;-69
2021/07/11 03:08:08;;;;;;;9.13;2.83;;;;;;;15.96;76.03;100509.06;5084089;28;20023;-70
2021/07/11 03:10:34;;;;;;;9.15;3.30;;;;;;;15.97;75.91;100516.91;5083980;28;20108;-70
2021/07/11 03:13:01;;;;;;;6.20;2.42;;;;;;;15.98;75.95;100513.41;5083836;28;20059;-71
2021/07/11 03:15:27;;;;;;;9.35;3.92;;;;;;;15.98;76.37;100510.78;5083400;28;20019;-70
2021/07/11 03:17:58;;;;;;;12.57;3.22;;;;;;;16.00;76.19;100521.22;5084051;28;20033;-70
2021/07/11 03:20:25;;;;;;;13.02;4.15;;;;;;;16.02;76.18;100519.41;5083747;28;20055;-70
2021/07/11 03:22:53;;;;;;;7.47;2.97;;;;;;;16.00;76.49;100518.59;5083774;28;20031;-69
2021/07/11 03:25:20;;;;;;;7.65;2.65;;;;;;;16.04;76.94;100522.81;5083684;28;20024;-70
2021/07/11 03:27:47;;;;;;;9.40;2.92;;;;;;;16.02;76.25;100519.41;5083669;28;20035;-71
2021/07/11 03:30:16;;;;;;;7.60;3.20;;;;;;;16.02;76.14;100521.16;5082579;28;20035;-69
2021/07/11 03:32:44;;;;;;;6.40;2.70;;;;;;;15.99;76.26;100529.94;5083789;28;20020;-69
2021/07/11 03:35:12;;;;;;;7.80;3.00;;;;;;;15.96;75.59;100522.16;5083737;28;20090;-69
2021/07/11 03:37:44;;;;;;;12.07;2.88;;;;;;;15.96;76.47;100517.78;5083531;28;20022;-69
2021/07/11 03:40:11;;;;;;;6.65;2.67;;;;;;;16.00;77.08;100517.72;5083591;28;20031;-69
2021/07/11 03:42:40;;;;;;;6.18;2.80;;;;;;;16.07;77.03;100529.75;5083753;28;20024;-70
2021/07/11 03:45:08;;;;;;;7.85;3.35;;;;;;;16.03;77.05;100523.75;5083625;28;20020;-71
2021/07/11 03:47:44;;;;;;;7.03;2.58;;;;;;;16.08;76.28;100542.78;5083586;28;20025;-70
2021/07/11 03:50:11;;;;;;;10.30;2.88;;;;;;;16.08;76.29;100547.16;5083384;28;20099;-70
2021/07/11 03:52:43;;;;;;;10.43;3.95;;;;;;;16.05;76.42;100542.88;5083224;28;20048;-71
2021/07/11 03:55:10;;;;;;;7.38;3.58;;;;;;;16.06;76.06;100544.59;5083571;28;20093;-70
2021/07/11 03:57:37;;;;;;;8.65;3.13;;;;;;;16.06;76.21;100554.19;5083628;28;20032;-71
2021/07/11 04:00:04;;;;;;;7.22;2.90;;;;;;;16.04;75.90;100542.94;5083577;28;20021;-70
2021/07/11 04:02:32;;;;;;;5.90;3.05;;;;;;;16.00;75.64;100550.00;5083658;28;20434;-70
2021/07/11 04:04:59;;;;;;;10.95;3.25;;;;;;;16.05;76.66;100542.88;5083487;28;20035;-71
2021/07/11 04:07:29;;;;;;;9.57;2.90;;;;;;;16.06;75.25;100551.59;5083479;28;20031;-70
2021/07/11 04:09:56;;;;;;;7.50;2.63;;;;;;;16.08;75.90;100555.91;5083332;28;20028;-70
2021/07/11 04:12:21;;;;;;;7.25;2.70;;;;;;;16.09;76.03;100556.72;5083290;28;20088;-70
2021/07/11 04:14:47;;;;;;;6.57;2.65;;;;;;;16.13;75.62;100566.22;5083478;28;20028;-70
2021/07/11 04:17:13;;;;;;;7.95;2.55;;;;;;;16.15;75.93;100576.66;5083367;28;20040;-70
2021/07/11 04:19:43;;;;;;;8.45;3.00;;;;;;;16.17;75.46;100561.75;5083164;28;20048;-70
2021/07/11 04:22:14;;;;;;;5.38;2.85;;;;;;;16.20;76.09;100578.22;5083182;28;20043;-70
2021/07/11 04:24:40;;;;;;;6.43;2.92;;;;;;;16.23;75.44;100572.91;5083093;28;20088;-70
2021/07/11 04:27:05;;;;;;;8.13;2.60;;;;;;;16.22;75.50;100575.56;5085713;28;20051;-70
2021/07/11 04:29:33;;;;;;;8.18;2.90;;;;;;;16.24;76.02;100581.63;5087112;28;20516;-69
2021/07/11 04:32:00;;;;;;;4.60;2.75;;;;;;;16.30;76.07;100585.81;5087297;28;20093;-70
2021/07/11 04:34:31;;;;;;;5.13;2.70;;;;;;;16.30;75.45;100581.44;5087032;28;20020;-71
2021/07/11 04:36:58;;;;;;;9.05;3.30;;;;;;;16.34;76.08;100588.28;5087118;28;20032;-71
2021/07/11 04:39:24;;;;;;;8.68;3.28;;;;;;;16.35;75.59;100579.56;5086957;28;20024;-71
2021/07/11 04:41:50;;;;;;;8.63;2.75;;;;;;;16.35;75.76;100597.91;5086700;28;20052;-71
2021/07/11 04:44:17;;;;;;;11.45;2.85;;;;;;;16.35;75.10;100594.41;5086485;28;20028;-70
2021/07/11 04:46:42;;;;;;;5.70;2.88;;;;;;;16.37;75.83;100599.59;5087147;28;20100;-71
2021/07/11 04:49:08;;;;;;;8.57;2.50;;;;;;;16.39;75.80;100597.81;5086959;28;20119;-70
2021/07/11 04:51:33;;;;;;;5.97;3.17;;;;;;;16.33;74.36;100599.69;5086529;28;20044;-68
2021/07/11 04:53:59;;;;;;;6.10;2.75;;;;;;;16.29;73.61;100600.69;5086856;28;20031;-70
2021/07/11 04:56:24;;;;;;;8.00;2.67;;;;;;;16.27;74.00;100601.63;5086634;28;20041;-71
2021/07/11 04:58:50;;;;;;;6.32;3.03;;;;;;;16.27;74.65;100606.88;5086511;28;20039;-70
2021/07/11 05:01:15;;;;;;;5.63;2.80;;;;;;;16.28;74.71;100614.69;5086625;28;20054;-71
2021/07/11 05:03:41;;;;;;;7.15;2.50;;;;;;;16.37;74.63;100616.19;5086473;28;20059;-71
2021/07/11 05:06:06;;;;;;;9.95;3.05;;;;;;;16.38;74.44;100620.50;5086675;28;20031;-74
2021/07/11 05:08:32;;;;;;;5.63;2.63;;;;;;;16.41;74.58;100620.41;5086307;28;20102;-73
2021/07/11 05:10:57;;;;;;;9.18;2.55;;;;;;;16.33;73.43;100615.41;5086578;28;20027;-74
2021/07/11 05:13:22;;;;;;;5.30;2.65;;;;;;;16.38;73.66;100628.38;5086568;28;20024;-73
2021/07/11 05:15:48;;;;;;;6.57;2.95;;;;;;;16.38;73.76;100630.13;5086534;28;20032;-73
2021/07/11 05:18:13;;;;;;;14.77;3.55;;;;;;;16.41;74.01;100638.75;5086306;28;20456;-73
2021/07/11 05:20:39;;;;;;;9.25;3.38;;;;;;;16.44;73.67;100640.41;5085977;28;20023;-74
2021/07/11 05:23:04;;;;;;;5.03;2.33;;;;;;;16.45;73.83;100639.53;5086059;28;20027;-73
2021/07/11 05:25:33;;;;;;;7.78;2.95;;;;;;;16.42;73.34;100632.59;5086171;28;20063;-73
2021/07/11 05:28:03;;;;;;;11.15;3.15;;;;;;;16.42;73.29;100635.22;5086160;28;20296;-74
2021/07/11 05:30:29;;;;;;;6.13;2.72;;;;;;;16.43;72.84;100641.34;5085913;28;20028;-73
2021/07/11 05:32:55;;;;;;;6.10;2.90;;;;;;;16.44;73.34;100643.91;5084524;28;20456;-73
2021/07/11 05:35:20;;;;;;;3.38;2.40;;;;;;;16.51;73.51;100646.34;5085831;28;20020;-73
2021/07/11 05:37:46;;;;;;;5.68;2.92;;;;;;;16.54;73.87;100638.41;5084975;28;20358;-73
2021/07/11 05:40:15;;;;;;;5.03;2.53;;;;;;;16.61;73.63;100650.44;5085853;28;20051;-73
2021/07/11 05:42:41;;;;;;;11.50;3.20;;;;;;;16.62;72.77;100652.13;5086007;28;20086;-74
2021/07/11 05:45:07;;;;;;;5.80;2.53;;;;;;;16.62;73.61;100659.13;5085949;28;20389;-74
2021/07/11 05:47:32;;;;;;;6.47;2.50;;;;;;;16.62;73.12;100657.38;5085998;28;20050;-74
2021/07/11 05:49:57;;;;;;;6.88;2.65;;;;;;;16.67;73.16;100662.47;5085557;28;20017;-73
2021/07/11 05:52:23;;;;;;;6.03;3.45;;;;;;;16.53;72.61;100650.66;5085346;28;20056;-74
2021/07/11 05:54:48;;;;;;;5.60;2.75;;;;;;;16.65;73.13;100664.28;5085436;28;20047;-74
2021/07/11 05:57:14;;;;;;;5.93;2.47;;;;;;;16.63;73.58;100663.50;5085880;28;20020;-73
2021/07/11 05:59:39;;;;;;;7.63;3.25;;;;;;;16.68;73.83;100672.91;5085625;28;20342;-74
2021/07/11 06:02:04;;;;;;;6.57;3.20;;;;;;;16.69;73.88;100671.16;5085483;28;20289;-75
2021/07/11 06:04:30;;;;;;;7.03;2.78;;;;;;;16.75;73.77;100683.22;5085486;28;20028;-74
2021/07/11 06:06:55;;;;;;;5.90;3.08;;;;;;;16.74;73.74;100685.00;5085400;28;20388;-74
2021/07/11 06:09:21;;;;;;;10.75;3.15;;;;;;;16.79;74.38;100690.09;5085248;28;20059;-74
2021/07/11 06:11:46;;;;;;;9.45;4.13;;;;;;;16.81;74.09;100690.91;5084057;28;20023;-74
2021/07/11 06:14:14;;;;;;;10.27;2.72;;;;;;;16.80;73.20;100692.69;5085326;28;20043;-74
2021/07/11 06:16:39;;;;;;;7.50;3.13;;;;;;;16.78;72.97;100693.59;5085182;28;20024;-74
2021/07/11 06:19:04;;;;;;;5.60;2.45;;;;;;;16.75;73.68;100693.69;5085198;28;20078;-74
2021/07/11 06:21:30;;;;;;;7.78;3.45;;;;;;;16.76;74.08;100704.16;5084864;28;20032;-73
2021/07/11 06:23:55;;;;;;;6.40;3.38;;;;;;;16.79;73.95;100703.22;5084917;28;20028;-73
2021/07/11 06:26:20;;;;;;;5.03;2.70;;;;;;;16.77;73.50;100712.88;5085237;28;20028;-73
2021/07/11 06:28:46;;;;;;;7.20;3.42;;;;;;;16.74;73.69;100708.59;5084646;28;20499;-73
2021/07/11 06:31:11;;;;;;;6.32;2.95;;;;;;;16.75;74.15;100706.81;5084917;28;20016;-73
2021/07/11 06:33:36;;;;;;;6.65;3.03;;;;;;;16.80;74.04;100708.41;5084839;28;20024;-73
2021/07/11 06:36:02;;;;;;;7.18;2.72;;;;;;;16.82;72.68;100706.56;5084990;28;20024;-74
2021/07/11 06:38:27;;;;;;;4.70;2.85;;;;;;;16.85;73.07;100713.53;5084721;28;20162;-74
2021/07/11 06:40:52;;;;;;;6.13;2.80;;;;;;;16.94;73.87;100722.84;5084562;28;20028;-75
2021/07/11 06:43:18;;;;;;;5.10;3.00;;;;;;;17.00;73.36;100716.59;5084812;28;20020;-74
2021/07/11 06:45:43;;;;;;;6.28;3.03;;;;;;;17.09;73.75;100725.03;5084638;28;20020;-74
2021/07/11 06:48:09;;;;;;;5.72;2.60;;;;;;;17.18;73.58;100723.91;5084493;28;20090;-74
2021/07/11 06:50:36;;;;;;;5.45;2.80;;;;;;;17.22;73.95;100730.78;5084108;28;20024;-73
2021/07/11 06:53:11;;;;;;;5.07;2.72;;;;;;;17.28;71.94;100727.13;5084201;28;20063;-74
2021/07/11 06:55:37;;;;;;;9.70;3.22;;;;;;;17.26;72.04;100730.66;5084341;28;20016;-72
2021/07/11 06:58:02;;;;;;;10.80;3.35;;;;;;;17.26;71.27;100739.41;5084426;28;20028;-74
2021/07/11 07:00:28;;;;;;;7.40;2.97;;;;;;;17.23;71.79;100742.13;5084285;28;20027;-74
2021/07/11 07:02:53;;;;;;;9.00;3.30;;;;;;;17.27;71.89;100740.28;5083910;28;20021;-73
2021/07/11 07:05:20;;;;;;;5.55;3.10;;;;;;;17.27;72.14;100742.91;5084248;28;20045;-74
2021/07/11 07:07:46;;;;;;;5.30;2.70;;;;;;;17.28;70.17;100739.34;5084411;28;20025;-73
2021/07/11 07:10:13;;;;;;;7.18;2.83;;;;;;;17.29;70.26;100744.56;5082705;28;20074;-73
2021/07/11 07:12:40;;;;;;;5.45;2.88;;;;;;;17.34;70.41;100737.41;5083908;28;20055;-74
2021/07/11 07:15:07;;;;;;;5.30;2.63;;;;;;;17.44;70.15;100740.56;5084287;28;20063;-74
2021/07/11 07:17:33;;;;;;;6.90;3.25;;;;;;;17.54;68.80;100751.66;5083919;28;20029;-70
2021/07/11 07:19:59;;;;;;;5.70;3.05;;;;;;;17.59;70.00;100749.75;5083599;28;20031;-72
2021/07/11 07:22:24;;;;;;;6.55;2.88;;;;;;;17.64;70.03;100754.84;5083983;28;20031;-71
2021/07/11 07:24:52;;;;;;;9.65;2.70;;;;;;;17.73;69.20;100752.81;5083812;28;20041;-70
2021/07/11 07:27:18;;;;;;;6.55;2.60;;;;;;;17.67;68.11;100756.50;5084116;28;20021;-67
2021/07/11 07:29:43;;;;;;;5.93;3.10;;;;;;;17.65;68.22;100753.06;5083907;28;20111;-70
2021/07/11 07:32:09;;;;;;;5.72;2.75;;;;;;;17.63;69.13;100757.50;5083957;28;20134;-72
2021/07/11 07:34:34;;;;;;;6.80;2.40;;;;;;;17.65;67.89;100753.06;5083640;28;20025;-69
2021/07/11 07:36:59;;;;;;;6.63;2.50;;;;;;;17.70;67.88;100757.25;5083398;28;20024;-64
2021/07/11 07:39:26;;;;;;;9.07;3.60;;;;;;;17.82;69.46;100747.25;5083150;28;20093;-66
2021/07/11 07:41:51;;;;;;;6.45;3.53;;;;;;;17.93;68.78;100749.53;5083563;28;20242;-65
2021/07/11 07:44:17;;;;;;;6.65;2.75;;;;;;;18.18;69.55;100753.94;5083270;28;20042;-66
2021/07/11 07:46:42;;;;;;;8.68;2.78;;;;;;;18.37;67.97;100748.06;5083648;28;20080;-65
2021/07/11 07:49:07;;;;;;;8.10;2.85;;;;;;;18.57;68.69;100760.47;5083158;28;20052;-67
2021/07/11 07:51:33;;;;;;;6.72;2.88;;;;;;;18.69;67.95;100770.53;5082166;28;21010;-66
2021/07/11 07:53:58;;;;;;;4.68;2.53;;;;;;;18.81;67.48;100771.88;5083267;28;20021;-65
2021/07/11 07:56:24;;;;;;;6.93;2.70;;;;;;;18.88;67.57;100769.00;5083329;28;20028;-66
2021/07/11 07:58:49;;;;;;;5.95;2.42;;;;;;;18.99;67.17;100769.47;5083345;28;20024;-66
2021/07/11 08:01:15;;;;;;;9.98;3.03;;;;;;;18.97;66.59;100773.06;5082644;28;20028;-65
2021/07/11 08:03:40;;;;;;;5.25;2.35;;;;;;;19.03;66.18;100767.56;5083322;28;20024;-66
2021/07/11 08:06:05;;;;;;;7.00;2.60;;;;;;;19.05;66.15;100777.13;5083294;28;20024;-66
2021/07/11 08:08:31;;;;;;;5.40;2.55;;;;;;;18.97;63.79;100781.81;5083328;28;20024;-66
2021/07/11 08:10:56;;;;;;;5.60;2.47;;;;;;;18.86;63.19;100790.13;5083020;28;20092;-66
2021/07/11 08:13:22;;;;;;;7.63;2.45;;;;;;;18.76;64.30;100789.59;5083132;28;20028;-65
2021/07/11 08:15:48;;;;;;;5.30;2.40;;;;;;;18.71;63.75;100794.16;5083122;28;20024;-65
2021/07/11 08:18:14;;;;;;;7.55;2.33;;;;;;;18.73;64.65;100794.97;5083241;28;20484;-65
2021/07/11 08:20:39;;;;;;;5.90;2.33;;;;;;;18.74;64.06;100799.31;5082893;28;20035;-68
2021/07/11 08:23:05;;;;;;;5.82;2.22;;;;;;;18.74;63.42;100804.56;5083014;28;20079;-68
2021/07/11 08:25:30;;;;;;;4.22;2.30;;;;;;;18.62;62.30;100805.00;5081773;28;20032;-68
2021/07/11 08:27:56;;;;;;;7.80;2.30;;;;;;;18.57;62.54;100806.06;5083351;28;20082;-67
2021/07/11 08:30:21;;;;;;;4.38;1.77;;;;;;;18.56;63.04;100814.81;5082979;28;20032;-67
2021/07/11 08:32:47;;;;;;;7.93;3.00;;;;;;;18.60;63.26;100833.13;5082924;28;20035;-68
2021/07/11 08:35:13;;;;;;;4.80;2.45;;;;;;;18.61;62.04;100822.56;5082843;28;20017;-67
2021/07/11 08:37:39;;;;;;;4.32;2.22;;;;;;;18.63;63.34;100828.63;5083068;28;20025;-67
2021/07/11 08:40:07;;;;;;;5.63;2.15;;;;;;;18.66;64.09;100822.38;5083008;28;20040;-67
2021/07/11 08:42:34;;;;;;;3.83;2.45;;;;;;;18.70;62.52;100826.63;5082909;28;20484;-67
2021/07/11 08:44:59;;;;;;;5.32;2.15;;;;;;;18.62;62.89;100832.19;5082575;28;20020;-64
2021/07/11 08:47:24;;;;;;;6.70;2.28;;;;;;;18.54;63.41;100826.31;5082986;28;20050;-64
2021/07/11 08:49:50;;;;;;;4.25;2.03;;;;;;;18.47;63.30;100830.94;5082811;28;20032;-65
2021/07/11 08:52:15;;;;;;;6.88;2.40;;;;;;;18.39;63.73;100839.09;5082779;28;20040;-64
2021/07/11 08:54:41;;;;;;;7.35;2.45;;;;;;;18.37;63.64;100837.44;5082828;28;20016;-64
2021/07/11 08:57:11;;;;;;;5.80;2.30;;;;;;;18.42;64.22;100843.38;5082866;28;20028;-65
2021/07/11 08:59:42;;;;;;;6.43;2.25;;;;;;;18.49;64.78;100838.75;5083005;28;20025;-64
2021/07/11 09:02:09;;;;;;;3.78;2.15;;;;;;;18.54;64.05;100842.97;5081393;28;20052;-67
2021/07/11 09:04:45;;;;;;;6.38;2.75;;;;;;;18.58;63.22;100836.69;5082473;28;20043;-67
2021/07/11 09:07:22;;;;;;;7.55;1.92;;;;;;;18.58;61.94;100839.31;5082513;28;20035;-66
2021/07/11 09:09:59;;;;;;;6.65;2.22;;;;;;;18.58;62.56;100844.56;5082484;28;20070;-66
2021/07/11 09:12:25;;;;;;;4.82;2.50;;;;;;;18.70;63.56;100845.03;5082685;28;20020;-67
2021/07/11 09:14:52;;;;;;;4.30;2.03;;;;;;;18.80;63.20;100853.47;5085845;28;20028;-66
2021/07/11 09:17:18;;;;;;;3.63;2.08;;;;;;;18.86;62.24;100855.88;5086332;28;20044;-66
2021/07/11 09:19:48;;;;;;;5.93;2.55;;;;;;;18.78;62.02;100856.16;5085958;28;20025;-66
2021/07/11 09:22:18;;;;;;;9.52;2.33;;;;;;;18.70;62.19;100859.06;5086050;28;20112;-67
2021/07/11 09:24:51;;;;;;;7.25;2.63;;;;;;;18.68;62.70;100862.63;5085790;28;20060;-68
2021/07/11 09:27:19;;;;;;;7.07;2.20;;;;;;;18.67;62.16;100860.94;5086143;28;20028;-67
2021/07/11 09:29:46;;;;;;;4.32;2.50;;;;;;;18.73;62.25;100857.22;5085895;28;20025;-67
2021/07/11 09:32:28;;;;;;;4.28;2.38;;;;;;;18.82;62.63;100855.13;5085779;28;20392;-67
2021/07/11 09:34:54;;;;;;;6.40;2.22;;;;;;;19.05;63.79;100865.72;5085824;28;20028;-67
2021/07/11 09:37:21;;;;;;;4.15;2.20;;;;;;;19.25;62.82;100861.53;5085790;28;20029;-66
2021/07/11 09:39:55;;;;;;;5.68;2.65;;;;;;;19.35;61.92;100869.91;5085629;28;20048;-66
2021/07/11 09:42:25;;;;;;;3.22;1.90;;;;;;;19.30;59.84;100868.31;5085808;28;20025;-66
2021/07/11 09:44:51;;;;;;;9.05;2.67;;;;;;;19.20;60.48;100865.19;5085649;28;20020;-68
2021/07/11 09:47:18;;;;;;;5.75;2.00;;;;;;;19.15;60.38;100874.16;5085659;28;20520;-67
2021/07/11 09:49:55;;;;;;;6.63;2.20;;;;;;;19.37;60.00;100881.25;5085518;28;20058;-68
2021/07/11 09:52:21;;;;;;;7.05;2.25;;;;;;;19.52;58.27;100879.81;5084812;28;20065;-66
2021/07/11 09:54:57;;;;;;;4.93;1.90;;;;;;;19.48;58.47;100879.06;5085439;28;20032;-66
2021/07/11 09:57:35;;;;;;;3.50;1.92;;;;;;;19.55;58.56;100877.06;5085617;28;20028;-67
2021/07/11 10:00:10;;;;;;;6.40;1.80;;;;;;;19.52;57.87;100885.94;5085350;28;20020;-67
2021/07/11 10:02:36;;;;;;;4.93;2.42;;;;;;;19.48;57.55;100881.72;5085106;28;20053;-67
2021/07/11 10:05:03;;;;;;;4.43;1.75;;;;;;;19.45;58.33;100887.09;5085218;28;20050;-67
2021/07/11 10:07:29;;;;;;;4.68;1.85;;;;;;;19.53;57.95;100884.16;5085231;28;20503;-66
2021/07/11 10:09:54;;;;;;;3.05;1.70;;;;;;;19.48;57.43;100886.97;5084918;28;20024;-66
2021/07/11 10:12:19;;;;;;;4.15;2.63;;;;;;;19.42;58.38;100889.84;5083800;28;20029;-67
2021/07/11 10:14:45;;;;;;;3.80;1.92;;;;;;;19.50;58.90;100885.16;5085039;28;20066;-67
2021/07/11 10:17:12;;;;;;;5.78;1.83;;;;;;;19.57;57.38;100889.25;5084919;28;20025;-66
2021/07/11 10:19:38;;;;;;;5.00;1.85;;;;;;;19.47;56.25;100890.53;5084854;28;20020;-66
2021/07/11 10:22:13;;;;;;;3.40;2.10;;;;;;;19.37;57.43;100894.41;5084770;28;20024;-67
2021/07/11 10:24:41;;;;;;;6.55;2.03;;;;;;;19.49;58.12;100890.47;5084374;28;20044;-67
2021/07/11 10:27:26;;;;;;;3.78;1.70;;;;;;;19.79;57.91;100888.41;5084726;28;20025;-67
2021/07/11 10:29:57;;;;;;;3.45;1.98;;;;;;;20.05;56.78;100881.25;5084494;28;20028;-68
2021/07/11 10:32:29;;;;;;;2.67;2.07;;;;;;;20.22;56.68;100887.63;5084846;28;20020;-67
2021/07/11 10:35:31;;;;;;;3.88;1.75;;;;;;;20.41;55.92;100879.81;5084720;28;20034;-67
2021/07/11 10:37:56;;;;;;;;;;;;;;;20.46;55.50;100884.88;5082857;28;20468;-66
2021/07/11 10:40:29;;;;;;;4.63;2.00;;;;;;;20.41;54.35;100892.13;5084332;28;19919;-66
2021/07/11 10:42:55;;;;;;;3.40;1.73;;;;;;;20.28;55.29;100887.38;5084354;28;20608;-66
2021/07/11 10:45:20;;;;;;;5.75;2.13;;;;;;;20.26;55.61;100878.66;5084508;28;20059;-67
2021/07/11 10:47:47;;;;;;;2.63;1.73;;;;;;;20.26;54.60;100899.75;5084558;28;20078;-66
2021/07/11 10:50:30;;;;;;;5.50;1.80;;;;;;;20.20;54.67;100900.00;5084420;28;20297;-66
2021/07/11 10:52:57;;;;;;;2.50;1.58;;;;;;;20.15;55.17;100897.56;5084020;28;20104;-67
2021/07/11 10:55:24;;;;;;;3.95;2.15;;;;;;;20.19;54.75;100895.66;5084461;28;20076;-67
2021/07/11 10:57:49;;;;;;;3.03;1.85;;;;;;;20.23;55.57;100899.88;5084038;28;20021;-68
2021/07/11 11:00:25;;;;;;;4.20;2.05;;;;;;;20.35;55.89;100910.84;5084163;28;20021;-68
2021/07/11 11:02:53;;;;;;;3.78;1.50;;;;;;;20.48;55.40;100898.84;5084093;28;20034;-67
2021/07/11 11:05:20;;;;;;;3.08;1.50;;;;;;;20.47;54.08;100906.81;5082762;28;20092;-67
2021/07/11 11:08:08;;;;;;;3.10;2.00;;;;;;;20.33;53.56;100897.72;5084198;28;20050;-67
2021/07/11 11:10:35;;;;;;;3.05;1.63;;;;;;;20.25;54.23;100903.31;5084039;28;20097;-67
2021/07/11 11:13:26;;;;;;;4.90;1.80;;;;;;;20.16;54.79;100907.16;5083727;28;20024;-66
2021/07/11 11:16:00;;;;;;;2.05;1.40;;;;;;;20.21;55.04;100911.41;5083693;28;20032;-68
2021/07/11 11:18:43;;;;;;;3.88;2.00;;;;;;;20.14;54.29;100922.22;5084023;28;20024;-67
2021/07/11 11:21:11;;;;;;;3.13;1.83;;;;;;;20.08;55.36;100927.69;5083883;28;20020;-68
2021/07/11 11:23:39;;;;;;;3.05;2.00;;;;;;;19.98;54.90;100918.44;5083720;28;20021;-68
2021/07/11 11:26:06;;;;;;;4.28;1.95;;;;;;;19.79;55.61;100927.91;5083557;28;20025;-67